Time;durP1;ratioP1;P1;durP2;ratioP2;P2;SDS_P1;SDS_P2;PMS_P1;PMS_P2;Temp;Humidity;BMP_temperature;BMP_pressure;BME280_temperature;BME280_humidity;BME280_pressure;Samples;Min_cycle;Max_cycle;Signal;HPM_P1;HPM_P2
2022/07/07 00:00:07;;;;;;;15.40;10.30;;;17.00;99.90;;;;;;5081894;28;20040;-70
2022/07/07 00:02:33;;;;;;;13.15;9.40;;;17.00;99.90;;;;;;5081703;28;20094;-70
2022/07/07 00:04:59;;;;;;;14.52;10.00;;;17.00;99.90;;;;;;5067010;28;20044;-70
2022/07/07 00:07:24;;;;;;;13.10;9.73;;;17.00;99.90;;;;;;5085080;28;20072;-70
2022/07/07 00:09:51;;;;;;;12.95;9.40;;;17.00;99.90;;;;;;5082490;28;20043;-70
2022/07/07 00:12:16;;;;;;;14.73;9.95;;;17.00;99.90;;;;;;5085051;28;20394;-70
2022/07/07 00:14:42;;;;;;;13.85;10.10;;;17.00;99.90;;;;;;5070644;28;20032;-69
2022/07/07 00:17:08;;;;;;;14.30;9.73;;;17.00;99.90;;;;;;5071977;28;20094;-70
2022/07/07 00:19:34;;;;;;;13.25;9.82;;;17.00;99.90;;;;;;5080059;28;20399;-70
2022/07/07 00:22:00;;;;;;;12.90;9.13;;;17.00;99.90;;;;;;5081571;28;20036;-71
2022/07/07 00:24:25;;;;;;;11.38;9.63;;;17.00;99.90;;;;;;5051956;28;20131;-71
2022/07/07 00:26:51;;;;;;;12.73;9.77;;;17.00;99.90;;;;;;5077320;28;20048;-70
2022/07/07 00:29:16;;;;;;;13.90;9.85;;;17.00;99.90;;;;;;5073697;28;20052;-70
2022/07/07 00:31:42;;;;;;;15.73;10.70;;;17.00;99.90;;;;;;5058121;28;20036;-70
2022/07/07 00:34:08;;;;;;;11.98;9.70;;;17.00;99.90;;;;;;5080508;28;20487;-70
2022/07/07 00:36:34;;;;;;;12.27;10.75;;;17.00;99.90;;;;;;5078564;28;20040;-70
2022/07/07 00:39:00;;;;;;;13.05;9.38;;;17.00;99.90;;;;;;5054437;28;20056;-71
2022/07/07 00:41:26;;;;;;;14.43;10.75;;;17.00;99.90;;;;;;5072731;28;20113;-70
2022/07/07 00:43:52;;;;;;;11.80;10.20;;;17.00;99.90;;;;;;5082997;28;20127;-69
2022/07/07 00:46:18;;;;;;;15.98;10.95;;;17.00;99.90;;;;;;5060262;28;20045;-70
2022/07/07 00:48:44;;;;;;;13.70;11.32;;;17.10;99.90;;;;;;5072549;28;20111;-70
2022/07/07 00:51:11;;;;;;;15.13;11.80;;;17.00;99.90;;;;;;5080418;28;20539;-70
2022/07/07 00:53:37;;;;;;;14.27;11.40;;;17.00;99.90;;;;;;5068793;28;20123;-72
2022/07/07 00:56:03;;;;;;;16.70;12.47;;;17.00;99.90;;;;;;5083944;28;20052;-70
2022/07/07 00:58:29;;;;;;;14.55;11.85;;;17.00;99.90;;;;;;5075020;28;20500;-70
2022/07/07 01:00:55;;;;;;;15.45;11.63;;;17.00;99.90;;;;;;5071841;28;20036;-71
2022/07/07 01:03:20;;;;;;;15.32;11.68;;;17.00;99.90;;;;;;5073374;28;20036;-69
2022/07/07 01:05:48;;;;;;;14.18;11.35;;;17.00;99.90;;;;;;5071590;28;20411;-70
2022/07/07 01:08:17;;;;;;;13.70;12.02;;;16.90;99.90;;;;;;5071972;28;20039;-70
2022/07/07 01:10:43;;;;;;;13.90;12.40;;;16.90;99.90;;;;;;5077296;28;20040;-70
2022/07/07 01:13:08;;;;;;;16.73;12.32;;;16.90;99.90;;;;;;5076534;28;20052;-71
2022/07/07 01:15:34;;;;;;;17.63;12.82;;;16.90;99.90;;;;;;5077024;28;20391;-69
2022/07/07 01:18:00;;;;;;;15.05;13.43;;;16.90;99.90;;;;;;5075293;28;20162;-70
2022/07/07 01:20:26;;;;;;;18.10;13.82;;;16.90;99.90;;;;;;5077050;28;20062;-70
2022/07/07 01:22:53;;;;;;;16.05;13.98;;;16.90;99.90;;;;;;5082759;28;20047;-70
2022/07/07 01:25:19;;;;;;;15.20;13.55;;;16.90;99.90;;;;;;5080881;28;20110;-70
2022/07/07 01:27:45;;;;;;;17.20;14.00;;;16.90;99.90;;;;;;5052233;28;20043;-71
2022/07/07 01:30:12;;;;;;;17.45;14.02;;;16.90;99.90;;;;;;5071200;28;20129;-71
2022/07/07 01:32:38;;;;;;;19.55;14.73;;;16.90;99.90;;;;;;5068505;28;20044;-70
2022/07/07 01:35:04;;;;;;;16.77;14.63;;;16.90;99.90;;;;;;5075614;28;20040;-70
2022/07/07 01:37:32;;;;;;;16.37;14.40;;;16.80;99.90;;;;;;5079857;28;21180;-70
2022/07/07 01:39:57;;;;;;;15.35;13.75;;;16.90;99.90;;;;;;5081955;28;20166;-70
2022/07/07 01:42:23;;;;;;;14.98;13.38;;;16.90;99.90;;;;;;5060718;28;20542;-70
2022/07/07 01:44:52;;;;;;;16.33;14.10;;;16.90;99.90;;;;;;5079733;28;20040;-70
2022/07/07 01:47:23;;;;;;;18.63;14.82;;;16.90;99.90;;;;;;5067614;28;20703;-70
2022/07/07 01:49:50;;;;;;;16.58;14.77;;;16.90;99.90;;;;;;5061519;28;20044;-70
2022/07/07 01:52:16;;;;;;;16.40;14.68;;;16.90;99.90;;;;;;5051148;28;20191;-70
2022/07/07 01:54:42;;;;;;;17.03;14.53;;;16.90;99.90;;;;;;5076143;28;20124;-70
2022/07/07 01:57:09;;;;;;;18.90;15.05;;;16.90;99.90;;;;;;5088050;28;20055;-70
2022/07/07 01:59:36;;;;;;;18.55;15.25;;;17.00;99.90;;;;;;5079799;28;20065;-71
2022/07/07 02:02:02;;;;;;;;;;;16.90;99.90;;;;;;5078007;28;20044;-70
2022/07/07 02:04:28;;;;;;;16.35;14.48;;;16.90;99.90;;;;;;5073397;28;19920;-70
2022/07/07 02:06:55;;;;;;;16.65;14.93;;;16.90;99.90;;;;;;5072458;28;20827;-70
2022/07/07 02:09:20;;;;;;;18.00;14.82;;;17.00;99.90;;;;;;5069234;28;20040;-70
2022/07/07 02:11:46;;;;;;;16.05;14.05;;;17.00;99.90;;;;;;5078242;28;20085;-70
2022/07/07 02:14:12;;;;;;;19.30;14.48;;;16.90;99.90;;;;;;5083682;28;20044;-70
2022/07/07 02:16:37;;;;;;;18.75;14.63;;;16.80;99.90;;;;;;5071544;28;20039;-70
2022/07/07 02:19:05;;;;;;;17.63;14.35;;;16.80;99.90;;;;;;5057412;28;20048;-70
2022/07/07 02:21:32;;;;;;;15.63;13.80;;;16.80;99.90;;;;;;5074121;28;20065;-70
2022/07/07 02:23:58;;;;;;;14.60;12.57;;;16.80;99.90;;;;;;5083267;28;20503;-70
2022/07/07 02:26:25;;;;;;;13.52;11.77;;;16.70;99.90;;;;;;5078517;28;20037;-71
2022/07/07 02:28:51;;;;;;;13.87;10.97;;;16.70;99.90;;;;;;5059040;28;20047;-70
2022/07/07 02:31:17;;;;;;;12.50;11.20;;;16.70;99.90;;;;;;5071409;28;20040;-70
2022/07/07 02:33:43;;;;;;;15.48;10.90;;;16.70;99.90;;;;;;5077841;28;20040;-70
2022/07/07 02:36:09;;;;;;;11.32;8.13;;;16.70;99.90;;;;;;5079630;28;20035;-70
2022/07/07 02:38:36;;;;;;;10.63;6.97;;;16.70;99.90;;;;;;5071771;28;20616;-70
2022/07/07 02:41:02;;;;;;;11.75;7.30;;;16.60;99.90;;;;;;5067210;28;20131;-71
2022/07/07 02:43:27;;;;;;;9.50;6.53;;;16.70;99.90;;;;;;5075043;28;20131;-70
2022/07/07 02:45:53;;;;;;;8.55;6.70;;;16.60;99.90;;;;;;5075490;28;20414;-70
2022/07/07 02:48:21;;;;;;;9.25;6.30;;;16.60;99.90;;;;;;5068618;28;20033;-70
2022/07/07 02:50:47;;;;;;;7.68;5.72;;;16.60;99.90;;;;;;5067082;28;20058;-70
2022/07/07 02:53:14;;;;;;;5.53;4.10;;;16.60;99.90;;;;;;5079319;28;20132;-70
2022/07/07 02:55:40;;;;;;;4.68;3.92;;;16.60;99.90;;;;;;5073143;28;20036;-70
2022/07/07 02:58:07;;;;;;;6.30;4.45;;;16.60;99.90;;;;;;5067912;28;20037;-71
2022/07/07 03:00:34;;;;;;;8.13;5.88;;;16.60;99.90;;;;;;5079407;28;20044;-70
2022/07/07 03:03:01;;;;;;;7.97;6.10;;;16.50;99.90;;;;;;5071061;28;20101;-70
2022/07/07 03:05:27;;;;;;;7.65;5.90;;;16.50;99.90;;;;;;5060036;28;20440;-70
2022/07/07 03:07:53;;;;;;;6.80;4.60;;;16.60;99.90;;;;;;5085464;28;20032;-71
2022/07/07 03:10:19;;;;;;;9.15;4.90;;;16.50;99.90;;;;;;5068945;28;20071;-70
2022/07/07 03:12:44;;;;;;;6.32;4.40;;;16.50;99.90;;;;;;5074815;28;20138;-70
2022/07/07 03:15:10;;;;;;;5.75;4.43;;;16.50;99.90;;;;;;5069103;28;20049;-70
2022/07/07 03:17:40;;;;;;;7.38;5.20;;;16.50;99.90;;;;;;5071870;28;20036;-70
2022/07/07 03:20:06;;;;;;;5.68;4.25;;;16.50;99.90;;;;;;5069247;28;20048;-71
2022/07/07 03:22:32;;;;;;;5.45;4.30;;;16.60;99.90;;;;;;5067297;28;20055;-71
2022/07/07 03:24:57;;;;;;;5.38;3.88;;;16.50;99.90;;;;;;5067549;28;20563;-70
2022/07/07 03:27:23;;;;;;;4.72;3.78;;;16.50;99.90;;;;;;5055245;28;20545;-70
2022/07/07 03:29:50;;;;;;;5.90;4.20;;;16.60;99.90;;;;;;5075903;28;20044;-70
2022/07/07 03:32:16;;;;;;;8.13;4.60;;;16.50;99.90;;;;;;5065365;28;20525;-70
2022/07/07 03:34:41;;;;;;;7.75;4.80;;;16.50;99.90;;;;;;5084249;28;20079;-70
2022/07/07 03:37:07;;;;;;;6.05;4.35;;;16.60;99.90;;;;;;5082122;28;20040;-70
2022/07/07 03:39:33;;;;;;;5.00;4.40;;;16.60;99.90;;;;;;5064732;28;20118;-70
2022/07/07 03:41:58;;;;;;;8.35;4.80;;;16.60;99.90;;;;;;5057465;28;20142;-70
2022/07/07 03:44:24;;;;;;;8.95;5.07;;;16.60;99.90;;;;;;5061527;28;20036;-70
2022/07/07 03:46:49;;;;;;;8.75;5.32;;;16.60;99.90;;;;;;5079346;28;20501;-70
2022/07/07 03:49:15;;;;;;;8.52;4.90;;;16.50;99.90;;;;;;5071023;28;20051;-70
2022/07/07 03:51:40;;;;;;;9.02;5.13;;;16.60;99.90;;;;;;5078368;28;20459;-70
2022/07/07 03:54:06;;;;;;;6.85;5.30;;;16.60;99.90;;;;;;5055011;28;20070;-70
2022/07/07 03:56:32;;;;;;;10.70;5.03;;;16.60;99.90;;;;;;5069437;28;20407;-71
2022/07/07 03:58:58;;;;;;;9.02;5.40;;;16.60;99.90;;;;;;5083213;28;20517;-71
2022/07/07 04:01:23;;;;;;;10.73;5.78;;;16.60;99.90;;;;;;5073003;28;20142;-70
2022/07/07 04:03:49;;;;;;;8.98;5.30;;;16.60;99.90;;;;;;5069921;28;20046;-70
2022/07/07 04:06:14;;;;;;;11.02;5.15;;;16.60;99.90;;;;;;5073819;28;20048;-71
2022/07/07 04:08:40;;;;;;;5.90;4.30;;;16.60;99.90;;;;;;5084007;28;20093;-70
2022/07/07 04:11:06;;;;;;;7.50;3.97;;;16.60;99.90;;;;;;5072059;28;20044;-70
2022/07/07 04:13:31;;;;;;;7.40;4.38;;;16.60;99.90;;;;;;5076961;28;20134;-70
2022/07/07 04:15:57;;;;;;;7.03;4.88;;;16.60;99.90;;;;;;5080006;28;20487;-71
2022/07/07 04:18:23;;;;;;;14.05;5.00;;;16.50;99.90;;;;;;5074000;28;20048;-70
2022/07/07 04:20:48;;;;;;;8.98;4.32;;;16.60;99.90;;;;;;5076099;28;20036;-70
2022/07/07 04:23:14;;;;;;;9.10;3.85;;;16.60;99.90;;;;;;5070899;28;20051;-70
2022/07/07 04:25:40;;;;;;;9.93;3.72;;;16.50;99.90;;;;;;5079809;28;20036;-70
2022/07/07 04:28:06;;;;;;;8.65;3.97;;;16.50;99.90;;;;;;5089384;28;20032;-70
2022/07/07 04:30:32;;;;;;;10.18;4.30;;;16.50;99.90;;;;;;5071924;28;20055;-70
2022/07/07 04:32:58;;;;;;;7.43;3.78;;;16.50;99.90;;;;;;5074949;28;20561;-70
2022/07/07 04:35:24;;;;;;;8.20;3.80;;;16.50;99.90;;;;;;5090590;28;20075;-70
2022/07/07 04:37:50;;;;;;;10.10;3.38;;;16.50;99.90;;;;;;5075175;28;20079;-70
2022/07/07 04:40:15;;;;;;;6.70;3.63;;;16.50;99.90;;;;;;5078951;28;20067;-70
2022/07/07 04:42:41;;;;;;;10.52;3.63;;;16.50;99.90;;;;;;5076041;28;20052;-70
2022/07/07 04:45:07;;;;;;;9.20;3.50;;;16.50;99.90;;;;;;5073975;28;20476;-71
2022/07/07 04:47:42;;;;;;;7.28;2.65;;;16.50;99.90;;;;;;5056463;28;20055;-70
2022/07/07 04:50:12;;;;;;;9.13;2.80;;;16.50;99.90;;;;;;5073140;28;20120;-70
2022/07/07 04:52:38;;;;;;;5.63;2.30;;;16.40;99.90;;;;;;5069685;28;21069;-70
2022/07/07 04:55:05;;;;;;;7.00;2.70;;;16.50;99.90;;;;;;5057220;28;20048;-70
2022/07/07 04:57:31;;;;;;;10.10;3.03;;;16.40;99.90;;;;;;5068989;28;20048;-71
2022/07/07 04:59:57;;;;;;;7.85;2.40;;;16.40;99.90;;;;;;5070022;28;20260;-71
2022/07/07 05:02:22;;;;;;;4.57;2.17;;;16.30;99.90;;;;;;5052916;28;20131;-70
2022/07/07 05:04:49;;;;;;;3.67;1.20;;;16.30;99.90;;;;;;5055160;28;20478;-70
2022/07/07 05:07:15;;;;;;;6.43;1.40;;;16.20;99.90;;;;;;5085426;28;20881;-71
2022/07/07 05:09:41;;;;;;;6.15;1.55;;;16.20;99.90;;;;;;5086119;28;20078;-71
2022/07/07 05:12:06;;;;;;;5.82;1.60;;;16.10;99.90;;;;;;5085966;28;20116;-70
2022/07/07 05:14:32;;;;;;;8.50;2.00;;;16.10;99.90;;;;;;5073078;28;20369;-70
2022/07/07 05:16:59;;;;;;;7.13;1.70;;;16.20;99.90;;;;;;5064494;28;20045;-71
2022/07/07 05:19:25;;;;;;;9.52;2.20;;;16.10;99.90;;;;;;5052948;28;20075;-70
2022/07/07 05:21:51;;;;;;;6.95;1.70;;;16.10;99.90;;;;;;5068821;28;20075;-70
2022/07/07 05:24:16;;;;;;;8.20;2.10;;;16.10;99.90;;;;;;5084010;28;20519;-70
2022/07/07 05:26:42;;;;;;;9.93;2.00;;;16.10;99.90;;;;;;5078032;28;20438;-70
2022/07/07 05:29:08;;;;;;;10.10;2.35;;;16.10;99.90;;;;;;5078878;28;20068;-70
2022/07/07 05:31:33;;;;;;;8.25;2.30;;;16.10;99.90;;;;;;5077086;28;20036;-70
2022/07/07 05:33:59;;;;;;;8.40;1.65;;;16.20;99.90;;;;;;5090317;28;20040;-71
2022/07/07 05:36:24;;;;;;;10.02;2.22;;;16.20;99.90;;;;;;5085580;28;20036;-70
2022/07/07 05:38:50;;;;;;;7.03;2.30;;;16.20;99.90;;;;;;5090878;28;20139;-70
2022/07/07 05:41:17;;;;;;;7.68;1.85;;;16.20;99.90;;;;;;5073353;28;20056;-70
2022/07/07 05:43:42;;;;;;;9.40;2.10;;;16.30;99.90;;;;;;5078947;28;20044;-70
2022/07/07 05:46:08;;;;;;;4.32;1.50;;;16.30;99.90;;;;;;5075618;28;20093;-71
2022/07/07 05:48:34;;;;;;;8.82;1.98;;;16.40;99.90;;;;;;5080106;28;20040;-70
2022/07/07 05:50:59;;;;;;;7.80;1.85;;;16.40;99.90;;;;;;5055324;28;20678;-71
2022/07/07 05:53:25;;;;;;;9.30;2.35;;;16.50;99.90;;;;;;5049387;28;20052;-71
2022/07/07 05:55:51;;;;;;;8.45;1.90;;;16.50;99.90;;;;;;5073527;28;20511;-71
2022/07/07 05:58:16;;;;;;;8.85;1.85;;;16.60;99.90;;;;;;5083472;28;20438;-71
2022/07/07 06:00:42;;;;;;;9.50;1.70;;;16.50;99.90;;;;;;5068824;28;20369;-72
2022/07/07 06:03:08;;;;;;;7.70;1.67;;;16.60;99.90;;;;;;5074473;28;20040;-72
2022/07/07 06:05:33;;;;;;;6.97;2.08;;;16.60;99.90;;;;;;5059514;28;20109;-72
2022/07/07 06:07:59;;;;;;;6.70;1.67;;;16.70;99.90;;;;;;5053839;28;20066;-72
2022/07/07 06:10:25;;;;;;;8.20;1.77;;;16.70;99.90;;;;;;5076500;28;20071;-72
2022/07/07 06:12:51;;;;;;;6.05;1.40;;;16.80;99.90;;;;;;5088376;28;20071;-72
2022/07/07 06:15:20;;;;;;;7.25;1.90;;;16.80;99.90;;;;;;5066146;28;20102;-72
2022/07/07 06:17:46;;;;;;;7.63;1.80;;;16.90;99.90;;;;;;5075638;28;20040;-72
2022/07/07 06:20:12;;;;;;;8.35;1.92;;;16.90;99.90;;;;;;5076489;28;20044;-72
2022/07/07 06:22:38;;;;;;;8.20;1.85;;;16.80;99.90;;;;;;5076606;28;20487;-72
2022/07/07 06:25:04;;;;;;;7.93;2.00;;;16.80;99.90;;;;;;5076517;28;20391;-72
2022/07/07 06:27:30;;;;;;;8.18;1.80;;;16.80;99.90;;;;;;5077679;28;20037;-72
2022/07/07 06:29:57;;;;;;;6.03;2.10;;;16.80;99.90;;;;;;5070467;28;21669;-71
2022/07/07 06:32:22;;;;;;;8.33;1.93;;;16.80;99.90;;;;;;5078991;28;20047;-71
2022/07/07 06:34:48;;;;;;;10.82;2.55;;;16.90;99.90;;;;;;5080714;28;20048;-70
2022/07/07 06:37:14;;;;;;;8.63;2.08;;;17.00;99.90;;;;;;5074722;28;21071;-70
2022/07/07 06:39:40;;;;;;;8.70;2.05;;;17.10;99.90;;;;;;5079042;28;20038;-71
2022/07/07 06:42:05;;;;;;;10.65;2.05;;;17.10;99.90;;;;;;5070446;28;20059;-71
2022/07/07 06:44:32;;;;;;;8.93;2.10;;;17.00;99.90;;;;;;5058668;28;20106;-71
2022/07/07 06:46:58;;;;;;;7.00;2.00;;;16.90;99.90;;;;;;5078259;28;20040;-71
2022/07/07 06:49:28;;;;;;;9.45;2.10;;;16.90;99.90;;;;;;5076572;28;20044;-70
2022/07/07 06:51:54;;;;;;;11.02;2.10;;;16.80;99.90;;;;;;5077027;28;20040;-70
2022/07/07 06:54:20;;;;;;;9.50;2.47;;;16.80;99.90;;;;;;5066326;28;20040;-70
2022/07/07 06:56:46;;;;;;;9.25;2.20;;;16.80;99.90;;;;;;5076544;28;20541;-70
2022/07/07 06:59:12;;;;;;;7.88;2.47;;;16.90;99.90;;;;;;5069534;28;20045;-71
2022/07/07 07:01:38;;;;;;;11.82;2.47;;;16.90;99.90;;;;;;5082335;28;20114;-70
2022/07/07 07:04:05;;;;;;;9.40;2.05;;;17.00;99.90;;;;;;5076097;28;20089;-69
2022/07/07 07:06:31;;;;;;;10.90;2.50;;;17.00;99.90;;;;;;5069802;28;20123;-70
2022/07/07 07:08:58;;;;;;;7.97;2.08;;;17.10;99.90;;;;;;5066063;28;20987;-71
2022/07/07 07:11:24;;;;;;;10.45;2.10;;;17.20;99.90;;;;;;5054593;28;20048;-69
2022/07/07 07:13:50;;;;;;;10.35;2.65;;;17.20;99.90;;;;;;5071851;28;20044;-74
2022/07/07 07:16:16;;;;;;;8.35;2.00;;;17.30;99.90;;;;;;5078363;28;20035;-72
2022/07/07 07:18:42;;;;;;;6.53;1.95;;;17.40;99.90;;;;;;5072540;28;20048;-72
2022/07/07 07:21:09;;;;;;;7.28;2.22;;;17.50;99.90;;;;;;5062987;28;20487;-72
2022/07/07 07:23:37;;;;;;;8.88;2.20;;;17.60;99.90;;;;;;5086690;28;20118;-72
2022/07/07 07:26:06;;;;;;;8.75;1.85;;;17.70;99.90;;;;;;5086862;28;20051;-73
2022/07/07 07:28:33;;;;;;;4.90;1.55;;;17.70;99.90;;;;;;5079350;28;20123;-73
2022/07/07 07:30:59;;;;;;;6.88;1.65;;;17.70;99.90;;;;;;5069567;28;20076;-73
2022/07/07 07:33:25;;;;;;;5.32;1.23;;;17.50;99.90;;;;;;5083597;28;20076;-72
2022/07/07 07:35:50;;;;;;;7.57;1.30;;;17.40;99.90;;;;;;5081923;28;20036;-73
2022/07/07 07:38:16;;;;;;;5.50;1.30;;;17.50;99.90;;;;;;5069492;28;20156;-75
2022/07/07 07:40:42;;;;;;;8.07;1.20;;;17.50;99.90;;;;;;5088108;28;20498;-73
2022/07/07 07:43:07;;;;;;;4.35;1.38;;;17.50;99.90;;;;;;5086876;28;20056;-73
2022/07/07 07:45:33;;;;;;;4.47;1.20;;;17.60;99.90;;;;;;5089821;28;20040;-73
2022/07/07 07:48:01;;;;;;;6.53;1.52;;;17.70;99.90;;;;;;5077464;28;20036;-74
2022/07/07 07:50:28;;;;;;;4.95;1.17;;;17.60;99.90;;;;;;5086697;28;20051;-74
2022/07/07 07:52:54;;;;;;;7.07;1.20;;;17.80;99.90;;;;;;5086786;28;20055;-75
2022/07/07 07:55:21;;;;;;;4.68;1.17;;;17.80;99.90;;;;;;5091039;28;20081;-75
2022/07/07 07:57:48;;;;;;;6.97;1.15;;;17.80;99.90;;;;;;5074809;28;20054;-75
2022/07/07 08:00:17;;;;;;;4.82;1.15;;;17.80;99.90;;;;;;5091880;28;20052;-76
2022/07/07 08:02:43;;;;;;;6.05;1.20;;;17.80;99.90;;;;;;5091624;28;20044;-76
2022/07/07 08:05:12;;;;;;;4.18;1.15;;;17.70;99.90;;;;;;5084068;28;20093;-72
2022/07/07 08:07:39;;;;;;;3.85;1.05;;;17.50;99.90;;;;;;5086956;28;20107;-71
2022/07/07 08:10:06;;;;;;;4.07;1.00;;;17.40;99.90;;;;;;5077019;28;20044;-72
2022/07/07 08:12:31;;;;;;;6.28;1.10;;;17.40;99.90;;;;;;5068140;28;20063;-72
2022/07/07 08:14:57;;;;;;;3.35;1.02;;;17.40;99.90;;;;;;5064136;28;20052;-72
2022/07/07 08:17:23;;;;;;;5.18;1.30;;;17.40;99.90;;;;;;5086869;28;20060;-73
2022/07/07 08:19:49;;;;;;;5.90;1.13;;;17.70;99.90;;;;;;5082754;28;20478;-73
2022/07/07 08:22:14;;;;;;;4.30;1.13;;;17.80;99.90;;;;;;5059692;28;20481;-74
2022/07/07 08:24:40;;;;;;;6.85;1.40;;;17.90;99.90;;;;;;5070951;28;20052;-73
2022/07/07 08:27:06;;;;;;;3.60;1.00;;;17.90;99.90;;;;;;5077393;28;20036;-72
2022/07/07 08:29:31;;;;;;;3.42;0.95;;;17.90;99.90;;;;;;5055875;28;20044;-73
2022/07/07 08:31:57;;;;;;;1.80;0.80;;;17.70;99.90;;;;;;5065827;28;20109;-75
2022/07/07 08:34:23;;;;;;;2.70;1.05;;;17.60;99.90;;;;;;5082176;28;20033;-73
2022/07/07 08:36:49;;;;;;;2.95;1.00;;;17.40;99.90;;;;;;5082410;28;20097;-74
2022/07/07 08:39:14;;;;;;;3.35;1.02;;;17.50;99.90;;;;;;5072257;28;20040;-75
2022/07/07 08:41:41;;;;;;;3.17;0.95;;;17.50;99.90;;;;;;5086432;28;20051;-72
2022/07/07 08:44:07;;;;;;;4.63;1.30;;;17.70;99.90;;;;;;5089315;28;20082;-74
2022/07/07 08:46:32;;;;;;;5.60;1.38;;;17.90;99.90;;;;;;5089408;28;20024;-72
2022/07/07 08:48:58;;;;;;;5.15;1.00;;;18.10;99.90;;;;;;5084672;28;20040;-73
2022/07/07 08:51:25;;;;;;;3.88;1.00;;;18.10;99.90;;;;;;5091562;28;20043;-72
2022/07/07 08:53:51;;;;;;;3.17;0.93;;;18.10;99.90;;;;;;5079814;28;20068;-72
2022/07/07 08:56:19;;;;;;;3.88;0.88;;;18.10;99.90;;;;;;5079774;28;20050;-71
2022/07/07 08:58:45;;;;;;;2.90;1.00;;;18.00;99.90;;;;;;5089546;28;20450;-73
2022/07/07 09:01:11;;;;;;;4.18;0.80;;;17.80;99.90;;;;;;5088973;28;20466;-74
2022/07/07 09:03:37;;;;;;;3.08;0.80;;;17.70;99.90;;;;;;5080918;28;20032;-71
2022/07/07 09:06:03;;;;;;;3.00;0.90;;;17.70;99.90;;;;;;5097491;28;20048;-72
2022/07/07 09:08:30;;;;;;;2.50;0.90;;;17.70;99.90;;;;;;5053185;28;20051;-72
2022/07/07 09:10:57;;;;;;;3.75;1.30;;;17.70;99.90;;;;;;5070520;28;20052;-72
2022/07/07 09:13:25;;;;;;;5.20;0.87;;;17.90;99.90;;;;;;5070867;28;20047;-72
2022/07/07 09:15:52;;;;;;;5.75;1.00;;;18.00;99.90;;;;;;5053546;28;20067;-72
2022/07/07 09:18:50;;;;;;;4.43;1.10;;;18.00;99.90;;;;;;5065765;28;20109;-73
2022/07/07 09:21:25;;;;;;;4.25;1.10;;;18.00;99.90;;;;;;5043080;28;20083;-72
2022/07/07 09:23:55;;;;;;;4.47;1.23;;;18.00;99.90;;;;;;5072163;28;20539;-73
2022/07/07 09:26:38;;;;;;;5.07;1.30;;;17.90;99.90;;;;;;5052793;28;20099;-73
2022/07/07 09:29:06;;;;;;;4.28;1.30;;;18.00;99.90;;;;;;5064048;28;20406;-74
2022/07/07 09:31:54;;;;;;;5.15;1.40;;;17.90;99.90;;;;;;5063277;28;20036;-73
2022/07/07 09:34:22;;;;;;;6.55;1.52;;;17.90;99.90;;;;;;5055283;28;20068;-73
2022/07/07 09:39:43;;;;;;;5.03;1.30;;;17.70;99.90;;;;;;5074780;28;20060;-73
2022/07/07 09:42:26;;;;;;;3.65;1.00;;;17.70;99.90;;;;;;5089960;28;20056;-73
2022/07/07 09:45:00;;;;;;;4.65;1.30;;;17.60;99.90;;;;;;5088183;28;20055;-71
2022/07/07 09:47:26;;;;;;;6.60;1.40;;;17.70;99.90;;;;;;5061866;28;20063;-71
2022/07/07 09:50:14;;;;;;;5.90;1.30;;;17.80;99.90;;;;;;5055274;28;20059;-71
2022/07/07 09:52:42;;;;;;;6.60;1.45;;;18.00;99.90;;;;;;5086270;28;20784;-72
2022/07/07 09:55:10;;;;;;;4.18;1.10;;;18.10;99.90;;;;;;5083776;28;20039;-71
2022/07/07 09:57:36;;;;;;;4.82;1.20;;;18.20;99.90;;;;;;5071665;28;20041;-72
2022/07/07 10:00:06;;;;;;;5.95;1.30;;;18.20;99.90;;;;;;5085931;28;20059;-72
2022/07/07 10:02:32;;;;;;;5.40;1.20;;;18.40;99.90;;;;;;5081936;28;20075;-71
2022/07/07 10:05:01;;;;;;;6.20;1.40;;;18.40;99.90;;;;;;5052810;28;20032;-70
2022/07/07 10:07:28;;;;;;;5.32;1.50;;;18.60;99.90;;;;;;5068587;28;20041;-70
2022/07/07 10:09:56;;;;;;;6.20;1.50;;;18.70;99.90;;;;;;5050764;28;20044;-71
2022/07/07 10:12:24;;;;;;;4.88;1.40;;;18.80;99.90;;;;;;5051014;28;20044;-71
2022/07/07 10:15:00;;;;;;;5.28;1.60;;;18.90;99.90;;;;;;5070283;28;20045;-72
2022/07/07 10:17:30;;;;;;;4.43;1.48;;;18.70;99.90;;;;;;5054552;28;20044;-69
2022/07/07 10:19:56;;;;;;;6.07;1.33;;;18.40;99.90;;;;;;5083175;28;20088;-72
2022/07/07 10:22:27;;;;;;;4.68;1.50;;;18.20;99.90;;;;;;5077909;28;20051;-74
2022/07/07 10:24:58;;;;;;;5.53;1.40;;;18.00;99.90;;;;;;5078202;28;20087;-72
2022/07/07 10:27:26;;;;;;;6.15;1.42;;;18.00;99.90;;;;;;5072566;28;20169;-72
2022/07/07 10:29:59;;;;;;;5.30;1.45;;;17.90;99.90;;;;;;5084195;28;20048;-71
2022/07/07 10:32:41;;;;;;;6.82;1.52;;;18.00;99.90;;;;;;5074605;28;20036;-73
2022/07/07 10:35:10;;;;;;;3.40;1.13;;;18.10;99.90;;;;;;5086501;28;20048;-73
2022/07/07 10:37:44;;;;;;;5.15;1.40;;;18.20;99.90;;;;;;5067368;28;20036;-75
2022/07/07 10:40:20;;;;;;;3.70;1.60;;;18.40;99.90;;;;;;5070572;28;20123;-70
2022/07/07 10:43:24;;;;;;;4.68;2.00;;;18.50;99.90;;;;;;5070855;28;20067;-70
2022/07/07 10:45:52;;;;;;;6.05;1.60;;;18.70;99.90;;;;;;5078603;28;20056;-70
2022/07/07 10:48:44;;;;;;;5.88;1.55;;;18.90;99.90;;;;;;5088300;28;20135;-70
2022/07/07 10:51:27;;;;;;;6.07;1.63;;;19.00;99.90;;;;;;5075070;28;20123;-70
2022/07/07 10:54:06;;;;;;;5.22;1.50;;;18.90;99.90;;;;;;5087739;28;20525;-70
2022/07/07 10:56:53;;;;;;;5.63;1.60;;;18.70;99.90;;;;;;5074811;28;20083;-71
2022/07/07 10:59:21;;;;;;;4.50;1.38;;;18.60;99.90;;;;;;5085249;28;20372;-68
2022/07/07 11:02:02;;;;;;;6.32;1.50;;;18.30;99.90;;;;;;5051553;28;20036;-72
2022/07/07 11:04:44;;;;;;;5.88;1.90;;;18.10;99.90;;;;;;5082164;28;20100;-72
2022/07/07 11:07:21;;;;;;;7.75;2.30;;;18.00;99.90;;;;;;5088855;28;20056;-72
2022/07/07 11:09:58;;;;;;;5.57;1.77;;;18.00;99.90;;;;;;5067253;28;20143;-72
2022/07/07 11:12:34;;;;;;;;;;;18.00;99.90;;;;;;5085352;28;20036;-71
2022/07/07 11:15:15;;;;;;;8.60;2.13;;;18.00;99.90;;;;;;5082538;28;19924;-72
2022/07/07 11:17:53;;;;;;;5.45;1.58;;;18.10;99.90;;;;;;5086325;28;20120;-71
2022/07/07 11:20:20;;;;;;;5.32;1.90;;;18.20;99.90;;;;;;5083785;28;20032;-72
2022/07/07 11:22:54;;;;;;;6.93;2.00;;;18.20;99.90;;;;;;5088121;28;20036;-71
2022/07/07 11:25:22;;;;;;;5.15;1.48;;;18.30;99.90;;;;;;5085089;28;20450;-72
2022/07/07 11:27:50;;;;;;;7.15;1.80;;;18.10;99.90;;;;;;5088774;28;20036;-72
2022/07/07 11:30:16;;;;;;;6.60;1.90;;;17.80;99.90;;;;;;5058735;28;20047;-77
2022/07/07 11:32:43;;;;;;;8.93;2.10;;;17.70;99.90;;;;;;5058161;28;20482;-73
2022/07/07 11:35:13;;;;;;;8.48;1.98;;;17.60;99.90;;;;;;5083470;28;20127;-73
2022/07/07 11:37:41;;;;;;;8.90;2.08;;;17.50;99.90;;;;;;5083921;28;20037;-73
2022/07/07 11:40:13;;;;;;;12.20;2.20;;;17.30;99.90;;;;;;5080251;28;20399;-73
2022/07/07 11:42:42;;;;;;;9.30;2.17;;;17.30;99.90;;;;;;5057431;28;20109;-74
2022/07/07 11:45:20;;;;;;;9.18;2.22;;;17.20;99.90;;;;;;5072596;28;20047;-72
2022/07/07 11:47:47;;;;;;;10.60;2.20;;;17.20;99.90;;;;;;5061419;28;20052;-72
2022/07/07 11:50:13;;;;;;;12.05;3.13;;;17.10;99.90;;;;;;5079607;28;20028;-72
2022/07/07 11:52:45;;;;;;;11.85;2.97;;;17.20;99.90;;;;;;5061004;28;20064;-72
2022/07/07 11:55:12;;;;;;;14.70;3.28;;;17.20;99.90;;;;;;5079985;28;20097;-72
2022/07/07 11:57:37;;;;;;;14.77;2.83;;;17.30;99.90;;;;;;5068479;28;20044;-71
2022/07/07 12:00:27;;;;;;;14.45;2.97;;;17.30;99.90;;;;;;5069232;28;20098;-73
2022/07/07 12:02:56;;;;;;;18.20;3.35;;;17.30;99.90;;;;;;5066597;28;20036;-73
2022/07/07 12:05:24;;;;;;;15.32;3.50;;;17.30;99.90;;;;;;5068426;28;20057;-72
2022/07/07 12:08:00;;;;;;;10.90;2.53;;;17.20;99.90;;;;;;5082770;28;20040;-73
2022/07/07 12:10:29;;;;;;;13.27;2.95;;;17.20;99.90;;;;;;5086938;28;20075;-72
2022/07/07 12:13:00;;;;;;;15.77;2.90;;;17.30;99.90;;;;;;5065605;28;20040;-72
2022/07/07 12:15:38;;;;;;;16.35;3.47;;;17.40;99.90;;;;;;5076301;28;20067;-72
2022/07/07 12:18:04;;;;;;;14.07;2.97;;;17.60;99.90;;;;;;5048449;28;20055;-72
2022/07/07 12:20:31;;;;;;;18.00;3.30;;;17.70;99.90;;;;;;5083424;28;20077;-72
2022/07/07 12:22:59;;;;;;;12.88;2.45;;;17.80;99.90;;;;;;5068523;28;20317;-72
2022/07/07 12:25:26;;;;;;;14.05;2.83;;;17.70;99.90;;;;;;5078021;28;20051;-69
2022/07/07 12:27:56;;;;;;;16.25;3.20;;;17.70;99.90;;;;;;5076517;28;20097;-69
2022/07/07 12:30:27;;;;;;;13.05;2.72;;;17.80;99.90;;;;;;5061551;28;20131;-69
2022/07/07 12:32:53;;;;;;;14.13;2.40;;;17.80;99.90;;;;;;5060837;28;20036;-69
2022/07/07 12:35:39;;;;;;;13.07;3.03;;;17.90;99.90;;;;;;5078777;28;20050;-70
2022/07/07 12:38:07;;;;;;;13.15;3.05;;;18.00;99.90;;;;;;5070994;28;20786;-72
2022/07/07 12:40:36;;;;;;;15.60;2.92;;;18.10;99.90;;;;;;5056198;28;20040;-72
2022/07/07 12:43:09;;;;;;;10.10;2.40;;;18.20;99.90;;;;;;5059644;28;20096;-73
2022/07/07 12:45:35;;;;;;;9.80;2.45;;;18.20;99.90;;;;;;5073823;28;20044;-78
2022/07/07 12:48:01;;;;;;;10.13;2.08;;;18.20;99.90;;;;;;5060137;28;20542;-76